createdAt,value
2024-03-15T00:02:02.313Z,12.43
2024-03-15T00:04:48.119Z,14.60
2024-03-15T00:07:33.823Z,10.67
2024-03-15T00:10:19.511Z,16.57
2024-03-15T00:13:05.251Z,11.73
2024-03-15T00:15:53.143Z,14.63
2024-03-15T00:18:41.229Z,13.40
2024-03-15T00:21:27.028Z,10.90
2024-03-15T00:24:15.093Z,12.63
2024-03-15T00:27:01.150Z,10.93
2024-03-15T00:29:46.443Z,13.70
2024-03-15T00:32:33.174Z,12.30
2024-03-15T00:35:21.142Z,11.40
2024-03-15T00:38:06.458Z,11.70
2024-03-15T00:40:52.016Z,16.40
2024-03-15T00:43:37.744Z,11.43
2024-03-15T00:46:23.507Z,18.97
2024-03-15T00:49:09.138Z,12.00
2024-03-15T00:51:56.802Z,12.40
2024-03-15T00:54:42.322Z,14.87
2024-03-15T00:57:30.349Z,16.93
2024-03-15T01:00:16.090Z,13.77
2024-03-15T01:03:01.632Z,14.50
2024-03-15T01:05:48.967Z,12.20
2024-03-15T01:08:34.702Z,12.20
2024-03-15T01:11:25.046Z,13.50
2024-03-15T01:14:10.568Z,16.70
2024-03-15T01:16:56.081Z,17.03
2024-03-15T01:19:41.716Z,13.00
2024-03-15T01:22:27.361Z,16.10
2024-03-15T01:25:12.861Z,17.67
2024-03-15T01:28:01.238Z,12.83
2024-03-15T01:30:47.050Z,15.37
2024-03-15T01:33:32.431Z,17.27
2024-03-15T01:36:19.085Z,13.57
2024-03-15T01:39:07.314Z,13.43
2024-03-15T01:41:52.908Z,13.30
2024-03-15T01:44:52.861Z,18.07
2024-03-15T01:47:38.782Z,13.93
2024-03-15T01:50:24.817Z,15.33
2024-03-15T01:53:11.838Z,12.63
2024-03-15T01:56:02.072Z,17.50
2024-03-15T01:58:47.741Z,12.30
2024-03-15T02:01:33.365Z,17.23
2024-03-15T02:04:21.118Z,15.43
2024-03-15T02:07:06.799Z,17.13
2024-03-15T02:09:52.473Z,13.70
2024-03-15T02:12:38.807Z,17.17
2024-03-15T02:15:24.482Z,15.57
2024-03-15T02:18:10.244Z,16.70
2024-03-15T02:20:56.049Z,15.43
2024-03-15T02:23:42.914Z,16.13
2024-03-15T02:26:28.150Z,15.37
2024-03-15T02:29:13.673Z,15.37
2024-03-15T02:31:59.219Z,15.60
2024-03-15T02:34:45.016Z,13.80
2024-03-15T02:37:32.960Z,18.03
2024-03-15T02:40:18.755Z,15.80
2024-03-15T02:43:04.747Z,15.13
2024-03-15T02:45:50.153Z,16.27
2024-03-15T02:48:42.119Z,17.97
2024-03-15T02:51:27.339Z,18.17
2024-03-15T02:54:15.069Z,12.20
2024-03-15T02:57:06.623Z,18.53
2024-03-15T02:59:52.868Z,16.80
2024-03-15T03:02:38.893Z,17.50
2024-03-15T03:05:24.561Z,19.73
2024-03-15T03:08:10.372Z,21.73
2024-03-15T03:10:55.690Z,21.87
2024-03-15T03:13:41.384Z,25.43
2024-03-15T03:16:27.037Z,30.53
2024-03-15T03:19:12.272Z,32.33
2024-03-15T03:21:58.208Z,29.40
2024-03-15T03:24:43.655Z,36.37
2024-03-15T03:27:31.285Z,32.40
2024-03-15T03:30:16.719Z,33.77
2024-03-15T03:33:04.600Z,42.23
2024-03-15T03:35:50.462Z,35.50
2024-03-15T03:38:36.039Z,38.90
2024-03-15T03:41:21.346Z,36.47
2024-03-15T03:44:06.935Z,41.67
2024-03-15T03:46:52.475Z,44.23
2024-03-15T03:49:37.913Z,42.33
2024-03-15T03:52:23.881Z,38.10
2024-03-15T03:55:09.600Z,40.03
2024-03-15T03:57:57.975Z,39.70
2024-03-15T04:00:43.602Z,33.70
2024-03-15T04:03:29.412Z,32.40
2024-03-15T04:06:15.733Z,26.63
2024-03-15T04:09:01.586Z,25.57
2024-03-15T04:11:49.725Z,19.63
2024-03-15T04:14:43.593Z,25.17
2024-03-15T04:17:37.318Z,19.27
2024-03-15T04:20:23.656Z,23.67
2024-03-15T04:23:11.584Z,18.30
2024-03-15T04:25:56.871Z,20.57
2024-03-15T04:28:43.129Z,21.67
2024-03-15T04:31:34.251Z,21.43
2024-03-15T04:34:19.560Z,17.00
2024-03-15T04:37:12.599Z,17.60
2024-03-15T04:40:00.684Z,21.10
2024-03-15T04:42:48.038Z,15.97
2024-03-15T04:45:33.609Z,20.77
2024-03-15T04:48:19.278Z,17.23
2024-03-15T04:51:07.985Z,21.00
2024-03-15T04:53:53.626Z,20.70
2024-03-15T04:56:41.491Z,23.30
2024-03-15T04:59:26.993Z,20.57
2024-03-15T05:02:14.974Z,22.77
2024-03-15T05:05:00.210Z,21.37
2024-03-15T05:07:46.367Z,17.47
2024-03-15T05:10:31.973Z,18.57
2024-03-15T05:13:19.351Z,17.50
2024-03-15T05:16:07.335Z,18.40
2024-03-15T05:18:53.031Z,20.57
2024-03-15T05:21:38.711Z,19.13
2024-03-15T05:24:24.298Z,19.60
2024-03-15T05:27:10.666Z,21.03
2024-03-15T05:29:56.273Z,20.00
2024-03-15T05:32:41.904Z,17.23
2024-03-15T05:35:30.219Z,17.10
2024-03-15T05:38:16.004Z,24.13
2024-03-15T05:41:02.770Z,19.23
2024-03-15T05:43:48.288Z,19.10
2024-03-15T05:46:41.597Z,21.73
2024-03-15T05:49:27.006Z,20.97
2024-03-15T05:52:15.973Z,18.97
2024-03-15T05:55:01.824Z,24.33
2024-03-15T05:57:47.410Z,21.90
2024-03-15T06:00:37.336Z,18.93
2024-03-15T06:03:23.382Z,20.40
2024-03-15T06:06:10.039Z,23.17
2024-03-15T06:08:55.751Z,19.13
2024-03-15T06:11:41.008Z,20.97
2024-03-15T06:14:27.065Z,17.17
2024-03-15T06:17:12.680Z,18.10
2024-03-15T06:20:01.794Z,21.40
2024-03-15T06:22:47.320Z,18.67
2024-03-15T06:25:32.732Z,23.73
2024-03-15T06:28:20.658Z,17.50
2024-03-15T06:31:06.817Z,14.70
2024-03-15T06:33:52.099Z,17.53
2024-03-15T06:36:45.761Z,17.80
2024-03-15T06:39:37.430Z,18.33
2024-03-15T06:42:36.825Z,14.40
2024-03-15T06:45:25.567Z,22.50
2024-03-15T06:48:33.994Z,15.70
2024-03-15T06:51:38.058Z,15.60
2024-03-15T06:54:27.071Z,13.10
2024-03-15T06:57:12.341Z,17.13
2024-03-15T07:00:10.921Z,13.27
2024-03-15T07:03:01.664Z,16.40
2024-03-15T07:05:47.141Z,16.10
2024-03-15T07:08:35.976Z,14.73
2024-03-15T07:11:21.120Z,16.90
2024-03-15T07:14:10.170Z,19.43
2024-03-15T07:16:58.152Z,10.80
2024-03-15T07:19:44.045Z,14.50
2024-03-15T07:22:31.679Z,13.53
2024-03-15T07:25:21.202Z,17.00
2024-03-15T07:28:09.623Z,18.30
2024-03-15T07:30:57.013Z,20.23
2024-03-15T07:33:42.963Z,15.10
2024-03-15T07:36:28.729Z,15.23
2024-03-15T07:39:16.301Z,16.07
2024-03-15T07:42:01.901Z,14.90
2024-03-15T07:44:50.135Z,15.23
2024-03-15T07:47:35.884Z,15.77
2024-03-15T07:50:21.776Z,13.20
2024-03-15T07:53:07.039Z,12.57
2024-03-15T07:55:52.605Z,14.57
2024-03-15T07:58:38.324Z,13.63
2024-03-15T08:01:26.092Z,12.47
2024-03-15T08:04:11.584Z,14.37
2024-03-15T08:06:57.630Z,13.03
2024-03-15T08:09:43.007Z,14.17
2024-03-15T08:12:30.149Z,13.93
2024-03-15T08:15:16.396Z,11.07
2024-03-15T08:18:02.083Z,10.67
2024-03-15T08:20:48.665Z,15.10
2024-03-15T08:23:34.540Z,10.60
2024-03-15T08:26:22.291Z,11.57
2024-03-15T08:29:10.214Z,13.57
2024-03-15T08:31:57.090Z,14.07
2024-03-15T08:34:43.480Z,10.10
2024-03-15T08:37:34.141Z,9.90
2024-03-15T08:40:22.197Z,16.93
2024-03-15T08:43:10.057Z,11.33
2024-03-15T08:45:57.720Z,8.87
2024-03-15T08:48:43.813Z,13.00
2024-03-15T08:51:29.635Z,12.13
2024-03-15T08:54:17.795Z,12.77
2024-03-15T08:57:04.026Z,13.20
2024-03-15T08:59:49.975Z,13.33
2024-03-15T09:02:37.692Z,10.70
2024-03-15T09:05:23.014Z,11.67
2024-03-15T09:08:12.256Z,8.77
2024-03-15T09:10:58.095Z,11.17
2024-03-15T09:13:47.689Z,8.67
2024-03-15T09:16:42.172Z,12.87
2024-03-15T09:19:30.292Z,10.77
2024-03-15T09:22:17.549Z,11.37
2024-03-15T09:25:03.098Z,9.40
2024-03-15T09:27:54.850Z,12.03
2024-03-15T09:31:03.966Z,9.83
2024-03-15T09:33:58.736Z,10.33
2024-03-15T09:36:45.010Z,14.20
2024-03-15T09:39:33.352Z,11.03
2024-03-15T09:42:21.515Z,10.60
2024-03-15T09:45:08.368Z,8.90
2024-03-15T09:47:54.988Z,9.43
2024-03-15T09:50:42.086Z,9.90
2024-03-15T09:53:27.766Z,7.87
2024-03-15T09:56:18.901Z,9.20
2024-03-15T09:59:20.707Z,11.20
2024-03-15T10:02:13.816Z,11.23
2024-03-15T10:05:01.976Z,8.73
2024-03-15T10:07:50.831Z,13.03
2024-03-15T10:10:38.788Z,13.77
2024-03-15T10:13:24.457Z,9.57
2024-03-15T10:16:10.775Z,9.30
2024-03-15T10:19:03.386Z,6.00
2024-03-15T10:21:48.769Z,8.77
2024-03-15T10:24:36.328Z,14.93
2024-03-15T10:27:23.838Z,9.43
2024-03-15T10:30:30.957Z,7.07
2024-03-15T10:33:17.650Z,7.70
2024-03-15T10:36:09.193Z,9.50
2024-03-15T10:38:56.662Z,7.07
2024-03-15T10:41:46.568Z,9.20
2024-03-15T10:44:36.783Z,9.00
2024-03-15T10:47:22.763Z,7.77
2024-03-15T10:50:12.535Z,11.03
2024-03-15T10:52:58.671Z,6.53
2024-03-15T10:55:44.276Z,5.63
2024-03-15T10:58:31.031Z,8.10
2024-03-15T11:01:17.068Z,8.97
2024-03-15T11:04:04.423Z,10.33
2024-03-15T11:06:50.795Z,7.73
2024-03-15T11:09:37.187Z,5.20
2024-03-15T11:12:23.197Z,7.23
2024-03-15T11:15:16.607Z,15.83
2024-03-15T11:18:09.719Z,6.33
2024-03-15T11:20:57.375Z,6.87
2024-03-15T11:23:42.479Z,8.77
2024-03-15T11:26:30.150Z,7.53
2024-03-15T11:29:23.421Z,8.60
2024-03-15T11:32:12.547Z,7.57
2024-03-15T11:34:59.749Z,5.83
2024-03-15T11:37:46.128Z,7.37
2024-03-15T11:40:31.918Z,8.20
2024-03-15T11:43:19.717Z,5.70
2024-03-15T11:46:05.724Z,6.60
2024-03-15T11:48:51.831Z,4.90
2024-03-15T11:51:40.561Z,5.97
2024-03-15T11:54:27.164Z,5.70
2024-03-15T11:57:12.745Z,10.27
2024-03-15T11:59:58.814Z,4.43
2024-03-15T12:02:44.593Z,6.60
2024-03-15T12:05:31.384Z,6.50
2024-03-15T12:08:26.009Z,7.27
2024-03-15T12:11:15.804Z,6.93
2024-03-15T12:14:01.540Z,6.80
2024-03-15T12:16:47.346Z,7.77
2024-03-15T12:19:33.063Z,8.63
2024-03-15T12:22:18.630Z,5.60
2024-03-15T12:25:04.150Z,7.70
2024-03-15T12:27:49.507Z,6.37
2024-03-15T12:30:35.184Z,8.17
2024-03-15T12:33:23.618Z,9.90
2024-03-15T12:36:10.481Z,5.17
2024-03-15T12:38:55.768Z,4.00
2024-03-15T12:41:42.637Z,5.30
2024-03-15T12:44:28.210Z,5.00
2024-03-15T12:47:15.868Z,5.40
2024-03-15T12:50:01.210Z,3.80
2024-03-15T12:52:49.443Z,3.43
2024-03-15T12:55:37.136Z,3.97
2024-03-15T12:58:25.615Z,6.53
2024-03-15T13:01:13.895Z,6.23
2024-03-15T13:04:01.887Z,13.07
2024-03-15T13:06:51.724Z,6.30
2024-03-15T13:09:37.303Z,4.67
2024-03-15T13:12:25.293Z,10.57
2024-03-15T13:15:17.382Z,5.33
2024-03-15T13:18:03.540Z,3.33
2024-03-15T13:20:50.371Z,4.33
2024-03-15T13:23:41.571Z,3.90
2024-03-15T13:26:27.671Z,4.30
2024-03-15T13:29:14.054Z,5.60
2024-03-15T13:32:00.375Z,8.13
2024-03-15T13:34:46.171Z,6.27
2024-03-15T13:37:31.400Z,7.87
2024-03-15T13:40:26.915Z,3.93
2024-03-15T13:43:20.349Z,4.47
2024-03-15T13:46:10.046Z,5.80
2024-03-15T13:49:00.928Z,5.40
2024-03-15T13:51:46.311Z,4.27
2024-03-15T13:54:33.304Z,4.70
2024-03-15T13:57:23.938Z,3.90
2024-03-15T14:00:31.629Z,8.50
2024-03-15T14:03:19.877Z,3.90
2024-03-15T14:06:08.141Z,6.13
2024-03-15T14:08:55.005Z,4.10
2024-03-15T14:11:40.783Z,9.40
2024-03-15T14:14:26.265Z,5.13
2024-03-15T14:17:11.640Z,3.30
2024-03-15T14:19:58.040Z,4.43
2024-03-15T14:22:44.256Z,4.43
2024-03-15T14:25:35.976Z,3.13
2024-03-15T14:28:21.615Z,3.57
2024-03-15T14:31:08.332Z,3.17
2024-03-15T14:33:53.610Z,8.23
2024-03-15T14:36:40.798Z,6.00
2024-03-15T14:39:27.804Z,2.50
2024-03-15T14:42:15.448Z,2.53
2024-03-15T14:45:01.948Z,3.50
2024-03-15T14:47:53.001Z,4.10
2024-03-15T14:50:39.623Z,3.93
2024-03-15T14:53:25.029Z,3.50
2024-03-15T14:56:10.593Z,4.30
2024-03-15T14:58:58.053Z,3.60
2024-03-15T15:01:43.702Z,2.90
2024-03-15T15:04:29.303Z,4.30
2024-03-15T15:07:16.306Z,3.73
2024-03-15T15:10:08.515Z,2.50
2024-03-15T15:12:54.421Z,2.67
2024-03-15T15:15:42.718Z,2.40
2024-03-15T15:18:29.338Z,3.47
2024-03-15T15:21:19.213Z,9.23
2024-03-15T15:24:06.318Z,10.23
2024-03-15T15:26:52.391Z,7.63
2024-03-15T15:29:40.324Z,2.43
2024-03-15T15:32:25.693Z,4.20
2024-03-15T15:35:12.494Z,3.37
2024-03-15T15:37:58.824Z,4.97
2024-03-15T15:40:46.492Z,4.23
2024-03-15T15:43:35.433Z,3.40
2024-03-15T15:46:20.886Z,2.60
2024-03-15T15:49:06.987Z,2.57
2024-03-15T15:51:52.177Z,4.03
2024-03-15T15:54:39.575Z,3.80
2024-03-15T15:57:25.118Z,5.13
2024-03-15T16:00:20.830Z,2.17
2024-03-15T16:03:10.090Z,1.80
2024-03-15T16:06:00.266Z,2.90
2024-03-15T16:08:48.121Z,4.70
2024-03-15T16:11:33.679Z,2.17
2024-03-15T16:14:19.091Z,2.33
2024-03-15T16:17:06.579Z,6.37
2024-03-15T16:19:51.992Z,8.57
2024-03-15T16:22:37.662Z,2.80
2024-03-15T16:25:23.224Z,3.07
2024-03-15T16:28:11.721Z,2.40
2024-03-15T16:30:58.992Z,2.67
2024-03-15T16:33:46.515Z,3.90
2024-03-15T16:36:34.143Z,3.03
2024-03-15T16:39:21.838Z,4.33
2024-03-15T16:42:08.385Z,3.67
2024-03-15T16:44:58.297Z,2.27
2024-03-15T16:47:44.062Z,2.93
2024-03-15T16:50:31.461Z,4.00
2024-03-15T16:53:17.582Z,5.40
2024-03-15T16:56:05.870Z,6.73
2024-03-15T16:58:51.132Z,2.00
2024-03-15T17:01:37.163Z,6.80
2024-03-15T17:04:23.284Z,5.07
2024-03-15T17:07:09.025Z,2.43
2024-03-15T17:09:54.430Z,5.13
2024-03-15T17:12:43.708Z,4.20
2024-03-15T17:15:31.243Z,3.80
2024-03-15T17:18:17.834Z,2.50
2024-03-15T17:21:05.680Z,3.17
2024-03-15T17:23:51.036Z,3.93
2024-03-15T17:26:36.736Z,3.33
2024-03-15T17:29:22.536Z,4.63
2024-03-15T17:32:10.241Z,3.17
2024-03-15T17:34:55.511Z,7.33
2024-03-15T17:37:40.921Z,7.43
2024-03-15T17:40:26.466Z,6.10
2024-03-15T17:43:14.818Z,7.43
2024-03-15T17:46:00.830Z,13.30
2024-03-15T17:48:46.627Z,15.90
2024-03-15T17:51:32.635Z,8.30
2024-03-15T17:54:21.378Z,5.30
2024-03-15T17:57:07.593Z,11.20
2024-03-15T17:59:53.076Z,14.20
2024-03-15T18:02:41.514Z,14.53
2024-03-15T18:05:27.201Z,14.83
2024-03-15T18:08:12.526Z,19.73
2024-03-15T18:10:59.588Z,13.70
2024-03-15T18:13:44.911Z,10.37
2024-03-15T18:16:34.010Z,10.30
2024-03-15T18:19:21.482Z,11.20
2024-03-15T18:22:10.453Z,9.90
2024-03-15T18:24:56.656Z,11.37
2024-03-15T18:27:42.239Z,14.63
2024-03-15T18:30:27.866Z,13.10
2024-03-15T18:33:16.119Z,15.17
2024-03-15T18:36:05.422Z,12.80
2024-03-15T18:38:54.438Z,9.90
2024-03-15T18:41:44.861Z,9.50
2024-03-15T18:44:30.921Z,11.00
2024-03-15T18:47:16.639Z,10.50
2024-03-15T18:50:02.379Z,15.00
2024-03-15T18:52:48.105Z,10.23
2024-03-15T18:55:38.303Z,9.63
2024-03-15T18:58:23.708Z,11.33
2024-03-15T19:01:12.475Z,10.87
2024-03-15T19:03:58.874Z,8.00
2024-03-15T19:06:44.580Z,10.73
2024-03-15T19:09:30.322Z,9.70
2024-03-15T19:12:15.826Z,8.17
2024-03-15T19:15:01.576Z,11.60
2024-03-15T19:17:49.510Z,13.83
2024-03-15T19:20:35.211Z,8.83
2024-03-15T19:23:23.324Z,9.33
2024-03-15T19:26:09.564Z,10.30
2024-03-15T19:28:58.144Z,8.10
2024-03-15T19:31:43.592Z,10.30
2024-03-15T19:34:29.880Z,8.87
2024-03-15T19:37:17.421Z,13.23
2024-03-15T19:40:06.040Z,7.67
2024-03-15T19:42:51.836Z,8.90
2024-03-15T19:45:37.782Z,7.73
2024-03-15T19:48:26.274Z,4.87
2024-03-15T19:51:11.793Z,6.13
2024-03-15T19:53:58.042Z,5.17
2024-03-15T19:56:43.813Z,3.70
2024-03-15T19:59:29.517Z,5.07
2024-03-15T20:02:15.514Z,5.17
2024-03-15T20:05:02.935Z,2.10
2024-03-15T20:07:48.738Z,3.67
2024-03-15T20:10:37.251Z,5.47
2024-03-15T20:13:22.702Z,3.27
2024-03-15T20:16:08.141Z,2.67
2024-03-15T20:18:53.813Z,6.47
2024-03-15T20:21:43.833Z,5.60
2024-03-15T20:24:29.363Z,2.13
2024-03-15T20:27:18.158Z,2.87
2024-03-15T20:30:05.364Z,5.27
2024-03-15T20:32:53.457Z,2.70
2024-03-15T20:35:39.613Z,3.70
2024-03-15T20:38:25.665Z,3.30
2024-03-15T20:41:11.499Z,2.57
2024-03-15T20:43:59.211Z,2.43
2024-03-15T20:46:46.549Z,2.27
2024-03-15T20:49:31.922Z,2.97
2024-03-15T20:52:18.201Z,4.10
2024-03-15T20:55:04.898Z,4.20
2024-03-15T20:57:51.127Z,2.60
2024-03-15T21:00:37.074Z,3.67
2024-03-15T21:03:24.873Z,3.60
2024-03-15T21:06:13.280Z,5.00
2024-03-15T21:08:59.155Z,4.10
2024-03-15T21:11:47.221Z,2.47
2024-03-15T21:14:33.141Z,2.60
2024-03-15T21:17:18.896Z,12.33
2024-03-15T21:20:14.207Z,4.53
2024-03-15T21:23:02.794Z,6.17
2024-03-15T21:25:50.468Z,8.90
2024-03-15T21:28:35.918Z,6.23
2024-03-15T21:31:21.355Z,3.83
2024-03-15T21:34:06.827Z,5.70
2024-03-15T21:36:54.261Z,2.87
2024-03-15T21:39:41.737Z,2.80
2024-03-15T21:42:27.015Z,3.10
2024-03-15T21:45:17.146Z,3.63
2024-03-15T21:48:05.490Z,2.67
2024-03-15T21:50:51.420Z,4.17
2024-03-15T21:53:36.876Z,2.73
2024-03-15T21:56:23.485Z,4.23
2024-03-15T21:59:10.470Z,5.57
2024-03-15T22:01:57.112Z,8.13
2024-03-15T22:04:49.468Z,2.40
2024-03-15T22:07:40.184Z,5.13
2024-03-15T22:10:25.763Z,5.00
2024-03-15T22:13:11.685Z,2.83
2024-03-15T22:15:57.250Z,3.17
2024-03-15T22:18:42.523Z,2.10
2024-03-15T22:21:30.572Z,2.80
2024-03-15T22:24:18.484Z,4.93
2024-03-15T22:27:05.577Z,2.97
2024-03-15T22:29:50.742Z,2.63
2024-03-15T22:32:39.162Z,2.90
2024-03-15T22:35:25.004Z,1.93
2024-03-15T22:38:12.614Z,2.90
2024-03-15T22:40:58.339Z,2.80
2024-03-15T22:43:44.520Z,2.40
2024-03-15T22:46:29.920Z,4.67
2024-03-15T22:49:17.686Z,2.83
2024-03-15T22:52:03.226Z,5.03
2024-03-15T22:54:48.950Z,5.33
2024-03-15T22:57:34.657Z,2.80
2024-03-15T23:00:28.471Z,4.60
2024-03-15T23:03:16.695Z,2.80
2024-03-15T23:06:05.701Z,3.13
2024-03-15T23:08:51.186Z,2.10
2024-03-15T23:11:36.874Z,3.07
2024-03-15T23:14:22.220Z,2.23
2024-03-15T23:17:11.963Z,3.60
2024-03-15T23:19:57.841Z,2.87
2024-03-15T23:22:47.025Z,2.53
2024-03-15T23:25:33.311Z,2.43
2024-03-15T23:28:19.020Z,2.33
2024-03-15T23:31:13.240Z,4.73
2024-03-15T23:34:01.349Z,4.30
2024-03-15T23:36:48.898Z,2.20
2024-03-15T23:39:36.451Z,2.60
2024-03-15T23:42:23.485Z,2.40
2024-03-15T23:45:09.547Z,2.90
2024-03-15T23:47:55.103Z,2.67
2024-03-15T23:50:42.867Z,2.47
2024-03-15T23:53:28.857Z,2.03
2024-03-15T23:56:14.290Z,6.60
2024-03-15T23:58:59.946Z,2.97
